Carlos Giménez

Recruteur en chef - Central Córdoba SdE
13 Févr 2028
Dimanche
Processus

Personnalité

Adaptabilité (3) Ambition (15) Controverse (16) Loyauté (5) Pression (4) Professionnalisme (7) Sportivité (5) Tempérament (5)

Profil

Style d'entraînement Démocratique
Diplôme Continental B
Détermination 12
Gestion des joueurs 6
Motivation 5
Discipline 9
Satisfaction professionnelle
100%
Fatigue
0%
Rôle Recruteur en chef
Salaire 73.1K p/s
Contrat 14.03.2030

Performance

Comportement Bon
Efficacité de l'entraînement
26%
Développement des joueurs
40%
Prévention des blessures
35%
Mise en place tactique
20%

Événements récents

A participé à une réunion de recrutement maintenant
A recommandé une cible de transfert maintenant
A recommandé une cible de transfert maintenant
A participé à une réunion de recrutement 7j
A recommandé une cible de transfert 7j
A recommandé une cible de transfert 7j
A recommandé une cible de transfert 7j
A recommandé une cible de transfert 7j

Suivi en cours

113
Joueur Club Statut Capacité Confiance Observé Dernière observation Dernier vote
Aaron Vera Maipú Actif 93 / 110 72% 1 27.12.2027 Approuver
Bautista Maillier Colón Actif 96 / 104 72% 1 14.06.2027 Approuver
Lucas Barrientos Los Andes Actif 90 / 91 72% 1 06.06.2027 Approuver
Dennis Cirkin Queens Park Rangers Actif 120 / 136 40% 1 01.02.2027 -
Brodie Spencer Oxford United Actif 131 / 114 40% 1 01.02.2027 -
Harry Clarke Preston Actif 135 / 119 40% 1 02.12.2026 -
Sampson Dweh Mallorca Actif 133 / 134 66% 1 01.12.2026 Approuver
Anthony Patterson Wrexham Actif 122 / 114 40% 4 29.11.2026 -
Viktor Johansson Stoke City Actif 135 / 130 40% 2 29.11.2026 -
Nicolás Sumavil Platense Actif 113 / 121 40% 3 28.11.2026 -
Đorđe Nikolić Cukaricki Actif 120 / 123 40% 1 28.11.2026 -
Dara O'Shea Ipswich Town Actif 127 / 150 40% 1 28.11.2026 -
Rob Atkinson Bristol City Actif 133 / 132 40% 1 28.11.2026 -
Manuel Roffo Hajduk Split Actif 138 / 124 40% 11 25.11.2026 -
Nathan Trott Cardiff City Actif 126 / 142 40% 2 25.11.2026 -
Chris Mepham West Bromwich Albion Actif 133 / 132 40% 1 25.11.2026 -
Alfie Jones Middlesbrough Actif 124 / 117 40% 1 25.11.2026 -
Drake Callender Minnesota United FC Actif 119 / 125 40% 2 23.11.2026 -
Will Dennis Milton Keynes Dons Actif 106 / 106 40% 1 23.11.2026 -
Joaquín Silva Plaza Colonia Actif 109 / 118 40% 7 20.11.2026 -
Zach Hemming Chesterfield Actif 113 / 109 40% 2 20.11.2026 -
Jacob Widell Zetterström Derby County Actif 136 / 134 40% 2 20.11.2026 -
Omar Carabalí O'Higgins Actif 116 / 106 40% 5 19.11.2026 -
Michael Cooper Sheffield United Actif 124 / 108 40% 2 19.11.2026 -
Brooke Norton-Cuffy Hull City Actif 146 / 119 40% 1 19.11.2026 -
Max Bird Birmingham Actif 135 / 121 40% 1 19.11.2026 -
Richard Ludha MFK Skalica Actif 119 / 126 40% 1 18.11.2026 -
Santiago D'abarno Hatayspor Actif 100 / 74 40% 2 16.11.2026 -
Lucas Lund Viborg Actif 104 / 125 40% 1 16.11.2026 -
Cristopher Varela Deportivo La Guaira Actif 110 / 117 40% 7 15.11.2026 -
Patrick Schulte Columbus Crew Actif 122 / 115 40% 4 15.11.2026 -
Tomás Ahumada Audax Italiano Actif 115 / 121 40% 1 12.11.2026 -
Filip Marschall Stevenage Actif 106 / 122 40% 1 12.11.2026 -
Renato Solís Sporting Cristal Actif 117 / 109 40% 5 11.11.2026 -
Rodrigo Morínigo Debrecen Actif 122 / 112 40% 4 11.11.2026 -
George Wickens Lincoln City Actif 103 / 103 40% 5 11.11.2026 -
Fernando Hernández Bekescsaba Actif 98 / 73 40% 1 10.11.2026 -
Luis Ingolotti Atlético Tucumán Actif 131 / 122 40% 3 09.11.2026 -
Pascal Loretz Luzern Actif 121 / 120 40% 1 08.11.2026 -
Williams Mabunda Ajax Cape Town Actif 125 / 125 40% 2 02.11.2026 -
Radek Vítek Middlesbrough Actif 129 / 121 40% 1 01.11.2026 -
Valentín Gómez Betis Actif 137 / 139 40% 1 01.11.2026 -
Shea Charles Southampton Actif 121 / 131 40% 1 01.11.2026 -
Manu Morlanes Mallorca Actif 137 / 123 40% 1 01.11.2026 -
Diego Enríquez Sporting Cristal Actif 128 / 128 40% 3 30.10.2026 -
Rodrigo Chagas Juventud Actif 117 / 112 40% 2 28.10.2026 -
Vladan Kovačević Norwich City Actif 114 / 134 40% 1 28.10.2026 -
Franco Ibarra Rosario Central Actif 135 / 138 40% 1 28.10.2026 -
Andreas Jungdal Westerlo Actif 117 / 132 40% 1 25.10.2026 -
Joaquín Bigo Tristán Suárez Actif 114 / 96 40% 1 25.10.2026 -
Nahuel Pezzini Arsenal Actif 107 / 120 40% 2 23.10.2026 -
Sergi Cardona KAA Gent Actif 158 / 142 40% 1 23.10.2026 -
Saúl Salcedo Newell's Old Boys Actif 120 / 113 40% 1 22.10.2026 -
Pedro Ramírez Deportivo Riestra Actif 122 / 104 40% 1 22.10.2026 -
Atsuki Ito Bolton Wanderers Actif 124 / 103 40% 1 22.10.2026 -
Anel Ahmedhodžić Burnley Actif 124 / 116 40% 1 20.10.2026 -
Fran Vieites Walsall Actif 119 / 108 40% 1 20.10.2026 -
Luciano Jachfe Nueva Chicago Actif 113 / 114 40% 2 16.10.2026 -
Josh Keeley Luton Town Actif 125 / 130 40% 1 16.10.2026 -
José Alberti Wanderers Actif 127 / 118 40% 1 16.10.2026 -
Facundo Mura Inter Miami CF Actif 121 / 127 40% 1 16.10.2026 -
Ignacio Rodríguez Racing Club Actif 126 / 109 40% 1 15.10.2026 -
Callum Brittain Middlesbrough Actif 123 / 121 40% 1 15.10.2026 -
Federico Losas Chacarita Juniors Actif 115 / 119 40% 1 10.10.2026 -
Juan Moreno La Luz Actif 112 / 114 40% 3 09.10.2026 -
Gonzalo Falcón Cienciano Actif 108 / 123 40% 2 07.10.2026 -
Carlos Moreno Pachuca Actif 125 / 120 40% 3 07.10.2026 -
Nahuel Galardi Maipú Actif 101 / 118 40% 3 07.10.2026 -
Agustín Buffa Wanderers Actif 95 / 102 40% 3 06.10.2026 -
Miguel Núñez Chiapas Actif 97 / 101 40% 1 05.10.2026 -
Franco Carretero Deportivo Lara Actif 92 / 86 40% 1 04.10.2026 -
Diego Romero Universitario Actif 123 / 118 40% 3 02.10.2026 -
Angel Zamudio Sport Huancayo Actif 111 / 125 40% 4 28.09.2026 -
Bruno Antúnez Boston River Actif 108 / 113 40% 2 27.09.2026 -
Roman Celentano FC Cincinnati Actif 117 / 127 40% 1 27.09.2026 -
Nicolás Campisi Sportivo Luqueno Actif 122 / 124 40% 3 25.09.2026 -
Luka Gavran Toronto FC Actif 107 / 118 40% 1 24.09.2026 -
Yeferson Cordova Llaneros Actif 92 / 108 40% 2 23.09.2026 -
Fabrizio Correa Juventud Actif 122 / 129 40% 2 23.09.2026 -
Williams Barlasina Fortaleza CEIF Actif 107 / 101 40% 2 17.09.2026 -
Nicolás Rossi Juventud Actif 113 / 100 40% 1 17.09.2026 -
Mauro Silveira Junior Actif 113 / 116 40% 2 16.09.2026 -
Andrés Gudiño Cruz Azul Actif 117 / 117 40% 3 14.09.2026 -
Jorge Hernández Tijuana Actif 121 / 108 40% 1 14.09.2026 -
Francisco Casanova Cerrito Actif 110 / 100 40% 1 13.09.2026 -
Lucas Bergström Union Berlin Actif 133 / 142 40% 2 12.09.2026 -
Diego Capdevila Cerro Actif 89 / 83 40% 1 09.09.2026 -
Andrés Samurio Tacuarembo Actif 106 / 115 40% 4 05.09.2026 -
Joaquín Varela Independiente Medellin Actif 121 / 109 40% 1 05.09.2026 -
Pedro Vite Pumas UNAM Actif 124 / 125 40% 1 05.09.2026 -
Emiliano Márquez Central Espanol Actif 93 / 104 40% 1 01.09.2026 -
Víctor Guzmán Monterrey Actif 133 / 125 40% 2 30.08.2026 -
Moisés Gallo Aragua Actif 105 / 98 40% 1 30.08.2026 -
Tomás Alarcón Colo-Colo Actif 126 / 109 40% 1 30.08.2026 -
Reynaldo Fontalvo Real Cartagena Actif 93 / 102 40% 1 27.08.2026 -
Héctor Holguín Morelia Actif 114 / 117 40% 1 27.08.2026 -
Mateo Garavito Deportivo Pasto Actif 126 / 120 40% 1 24.08.2026 -
Pablo Siles Montevideo City Torque Actif 113 / 117 40% 1 24.08.2026 -
Jean Carlos Pestaña Junior Actif 122 / 109 40% 1 24.08.2026 -
Frankarlos Benítez Caracas Actif 94 / 103 40% 1 23.08.2026 -
Nicolás Hernández Atletico Nacional Actif 113 / 122 40% 1 21.08.2026 -
Bruno Méndez Toluca Actif 121 / 128 40% 1 21.08.2026 -
Juan Camilo Pérez Carabobo Actif 109 / 117 40% 1 21.08.2026 -
Ander Guevara Racing Genk Actif 132 / 136 40% 2 17.08.2026 -
Agustín Requena Progreso Actif 99 / 96 40% 1 17.08.2026 -
Dayne St. Clair Inter Miami CF Actif 128 / 134 40% 1 15.08.2026 -
Emiliano Ancheta Nacional Actif 112 / 123 40% 1 12.08.2026 -
Álvaro Angulo Pumas UNAM Actif 122 / 118 40% 1 12.08.2026 -
Michael Carcelén Queretaro Actif 118 / 111 40% 1 09.08.2026 -
Jesús Orozco Chiquete Cruz Azul Actif 129 / 130 40% 1 09.08.2026 -
Nicolás Ramírez Universidad de Chile Actif 119 / 117 40% 1 09.08.2026 -
Aldo Pérez Guarani Actif 113 / 106 40% 1 05.08.2026 -
Antonio Sivera Alavés Actif 153 / 137 40% 1 02.08.2026 -